sensor_id;sensor_type;location;lat;lon;timestamp;pressure;altitude;pressure_sealevel;temperature;humidity
10718;BME280;13513;42.700;23.124;2024-01-27T00:00:06;149511.88;;;2.39;91.04
10718;BME280;13513;42.700;23.124;2024-01-27T00:02:33;149518.28;;;2.41;90.64
10718;BME280;13513;42.700;23.124;2024-01-27T00:05:01;149568.41;;;2.61;89.77
10718;BME280;13513;42.700;23.124;2024-01-27T00:07:28;149563.25;;;2.59;89.28
10718;BME280;13513;42.700;23.124;2024-01-27T00:09:56;149605.66;;;2.75;89.03
10718;BME280;13513;42.700;23.124;2024-01-27T00:12:25;149599.23;;;2.73;89.84
10718;BME280;13513;42.700;23.124;2024-01-27T00:14:53;149559.39;;;2.57;89.51
10718;BME280;13513;42.700;23.124;2024-01-27T00:17:20;149475.88;;;2.25;92.15
10718;BME280;13513;42.700;23.124;2024-01-27T00:19:50;149502.89;;;2.35;93.83
10718;BME280;13513;42.700;23.124;2024-01-27T00:22:17;149495.17;;;2.32;93.69
10718;BME280;13513;42.700;23.124;2024-01-27T00:24:47;149506.70;;;2.37;93.64
10718;BME280;13513;42.700;23.124;2024-01-27T00:27:14;149565.80;;;2.60;92.29
10718;BME280;13513;42.700;23.124;2024-01-27T00:29:42;149601.80;;;2.74;92.57
10718;BME280;13513;42.700;23.124;2024-01-27T00:32:10;149613.37;;;2.78;92.02
10718;BME280;13513;42.700;23.124;2024-01-27T00:34:37;149613.37;;;2.78;92.02
10718;BME280;13513;42.700;23.124;2024-01-27T00:37:04;149606.97;;;2.76;93.22
10718;BME280;13513;42.700;23.124;2024-01-27T00:39:32;149651.94;;;2.93;91.75
10718;BME280;13513;42.700;23.124;2024-01-27T00:41:59;149650.63;;;2.93;91.85
10718;BME280;13513;42.700;23.124;2024-01-27T00:44:27;149630.08;;;2.85;92.77
10718;BME280;13513;42.700;23.124;2024-01-27T00:46:54;149630.08;;;2.85;92.77
10718;BME280;13513;42.700;23.124;2024-01-27T00:49:22;149641.66;;;2.89;92.19
10718;BME280;13513;42.700;23.124;2024-01-27T00:51:49;149666.08;;;2.99;91.48
10718;BME280;13513;42.700;23.124;2024-01-27T00:54:17;149663.47;;;2.98;91.94
10718;BME280;13513;42.700;23.124;2024-01-27T00:56:44;149684.03;;;3.06;91.45
10718;BME280;13513;42.700;23.124;2024-01-27T00:59:12;149684.03;;;3.06;91.18
10718;BME280;13513;42.700;23.124;2024-01-27T01:01:39;149684.03;;;3.06;91.18
10718;BME280;13513;42.700;23.124;2024-01-27T01:04:07;149651.94;;;2.93;92.12
10718;BME280;13513;42.700;23.124;2024-01-27T01:06:34;149642.91;;;2.90;92.50
10718;BME280;13513;42.700;23.124;2024-01-27T01:09:02;149639.05;;;2.88;91.86
10718;BME280;13513;42.700;23.124;2024-01-27T01:11:30;149590.22;;;2.69;92.25
10718;BME280;13513;42.700;23.124;2024-01-27T01:13:58;149590.22;;;2.69;92.25
10718;BME280;13513;42.700;23.124;2024-01-27T01:16:25;149554.28;;;2.55;93.15
10718;BME280;13513;42.700;23.124;2024-01-27T01:18:53;149538.83;;;2.49;92.37
10718;BME280;13513;42.700;23.124;2024-01-27T01:21:20;149538.83;;;2.49;92.37
10718;BME280;13513;42.700;23.124;2024-01-27T01:23:48;149529.86;;;2.46;91.90
10718;BME280;13513;42.700;23.124;2024-01-27T01:26:15;149529.86;;;2.46;91.90
10718;BME280;13513;42.700;23.124;2024-01-27T01:28:43;149479.73;;;2.26;93.70
10718;BME280;13513;42.700;23.124;2024-01-27T01:31:10;149491.31;;;2.31;93.89
10718;BME280;13513;42.700;23.124;2024-01-27T01:33:38;149455.34;;;2.17;92.94
10718;BME280;13513;42.700;23.124;2024-01-27T01:36:05;149373.17;;;1.85;95.22
10718;BME280;13513;42.700;23.124;2024-01-27T01:38:33;149324.38;;;1.66;96.17
10718;BME280;13513;42.700;23.124;2024-01-27T01:41:00;149352.64;;;1.77;98.53
10718;BME280;13513;42.700;23.124;2024-01-27T01:43:28;149415.56;;;2.01;95.81
10718;BME280;13513;42.700;23.124;2024-01-27T01:45:56;149427.08;;;2.06;94.09
10718;BME280;13513;42.700;23.124;2024-01-27T01:48:23;149461.75;;;2.19;93.18
10718;BME280;13513;42.700;23.124;2024-01-27T01:50:51;149461.75;;;2.19;92.06
10718;BME280;13513;42.700;23.124;2024-01-27T01:53:18;149412.95;;;2.00;93.66
10718;BME280;13513;42.700;23.124;2024-01-27T01:55:46;149437.34;;;2.10;90.89
10718;BME280;13513;42.700;23.124;2024-01-27T01:58:13;149425.83;;;2.05;92.94
10718;BME280;13513;42.700;23.124;2024-01-27T02:00:41;149491.31;;;2.31;89.28
10718;BME280;13513;42.700;23.124;2024-01-27T02:03:12;149564.55;;;2.59;86.91
10718;BME280;13513;42.700;23.124;2024-01-27T02:05:40;149633.94;;;2.86;82.99
10718;BME280;13513;42.700;23.124;2024-01-27T02:08:08;149729.02;;;3.23;76.29
10718;BME280;13513;42.700;23.124;2024-01-27T02:10:35;149783.05;;;3.44;73.47
10718;BME280;13513;42.700;23.124;2024-01-27T02:13:04;149828.05;;;3.62;70.76
10718;BME280;13513;42.700;23.124;2024-01-27T02:15:32;149830.61;;;3.63;75.46
10718;BME280;13513;42.700;23.124;2024-01-27T02:17:59;149801.06;;;3.51;76.76
10718;BME280;13513;42.700;23.124;2024-01-27T02:20:26;149815.20;;;3.57;69.66
10718;BME280;13513;42.700;23.124;2024-01-27T02:22:54;149847.31;;;3.69;68.91
10718;BME280;13513;42.700;23.124;2024-01-27T02:25:21;149856.36;;;3.73;73.80
10718;BME280;13513;42.700;23.124;2024-01-27T02:27:49;149831.91;;;3.63;72.82
10718;BME280;13513;42.700;23.124;2024-01-27T02:30:16;149831.91;;;3.63;67.82
10718;BME280;13513;42.700;23.124;2024-01-27T02:32:44;149873.06;;;3.79;65.92
10718;BME280;13513;42.700;23.124;2024-01-27T02:35:11;149860.22;;;3.74;73.25
10718;BME280;13513;42.700;23.124;2024-01-27T02:37:41;149799.75;;;3.51;77.65
10718;BME280;13513;42.700;23.124;2024-01-27T02:40:09;149831.91;;;3.63;68.41
10718;BME280;13513;42.700;23.124;2024-01-27T02:42:37;149864.08;;;3.76;72.03
10718;BME280;13513;42.700;23.124;2024-01-27T02:45:05;149864.08;;;3.76;72.03
10718;BME280;13513;42.700;23.124;2024-01-27T02:47:32;149884.66;;;3.84;67.59
10718;BME280;13513;42.700;23.124;2024-01-27T02:50:00;149909.09;;;3.93;65.00
10718;BME280;13513;42.700;23.124;2024-01-27T02:52:27;149960.56;;;4.13;63.57
10718;BME280;13513;42.700;23.124;2024-01-27T02:54:55;149981.14;;;4.21;63.10
10718;BME280;13513;42.700;23.124;2024-01-27T02:57:22;149988.86;;;4.24;64.48
10718;BME280;13513;42.700;23.124;2024-01-27T02:59:49;149960.56;;;4.13;69.93
10718;BME280;13513;42.700;23.124;2024-01-27T03:02:17;149874.37;;;3.80;72.53
10718;BME280;13513;42.700;23.124;2024-01-27T03:04:44;149858.91;;;3.74;72.85
10718;BME280;13513;42.700;23.124;2024-01-27T03:07:12;149821.62;;;3.59;75.69
10718;BME280;13513;42.700;23.124;2024-01-27T03:09:39;149740.61;;;3.28;78.69
10718;BME280;13513;42.700;23.124;2024-01-27T03:12:07;149666.08;;;2.99;80.66
10718;BME280;13513;42.700;23.124;2024-01-27T03:14:34;149556.83;;;2.56;86.64
10718;BME280;13513;42.700;23.124;2024-01-27T03:17:02;149492.63;;;2.31;90.13
10718;BME280;13513;42.700;23.124;2024-01-27T03:19:29;149455.34;;;2.17;93.50
10718;BME280;13513;42.700;23.124;2024-01-27T03:21:57;149433.53;;;2.08;97.11
10718;BME280;13513;42.700;23.124;2024-01-27T03:24:25;149445.06;;;2.13;98.06
10718;BME280;13513;42.700;23.124;2024-01-27T03:26:52;149428.38;;;2.06;99.44
10718;BME280;13513;42.700;23.124;2024-01-27T03:29:19;149405.28;;;1.97;100.00
10718;BME280;13513;42.700;23.124;2024-01-27T03:31:47;149418.11;;;2.02;100.00
10718;BME280;13513;42.700;23.124;2024-01-27T03:34:16;149451.48;;;2.15;100.00
10718;BME280;13513;42.700;23.124;2024-01-27T03:36:50;149508.00;;;2.37;100.00
10718;BME280;13513;42.700;23.124;2024-01-27T03:39:17;149549.11;;;2.53;100.00
10718;BME280;13513;42.700;23.124;2024-01-27T03:41:45;149579.94;;;2.65;100.00
10718;BME280;13513;42.700;23.124;2024-01-27T03:44:12;149624.91;;;2.83;100.00
10718;BME280;13513;42.700;23.124;2024-01-27T03:46:40;149624.91;;;2.83;100.00
10718;BME280;13513;42.700;23.124;2024-01-27T03:49:07;149628.77;;;2.84;100.00
10718;BME280;13513;42.700;23.124;2024-01-27T03:51:34;149655.80;;;2.95;100.00
10718;BME280;13513;42.700;23.124;2024-01-27T03:54:02;149662.22;;;2.97;100.00
10718;BME280;13513;42.700;23.124;2024-01-27T03:56:30;149672.50;;;3.01;100.00
10718;BME280;13513;42.700;23.124;2024-01-27T03:58:57;149672.50;;;3.01;100.00
10718;BME280;13513;42.700;23.124;2024-01-27T04:01:24;149655.80;;;2.95;100.00
10718;BME280;13513;42.700;23.124;2024-01-27T04:03:52;149622.34;;;2.82;100.00
10718;BME280;13513;42.700;23.124;2024-01-27T04:06:19;149604.34;;;2.75;100.00
10718;BME280;13513;42.700;23.124;2024-01-27T04:08:47;149635.19;;;2.87;100.00
10718;BME280;13513;42.700;23.124;2024-01-27T04:11:23;149635.19;;;2.87;100.00
10718;BME280;13513;42.700;23.124;2024-01-27T04:13:51;149648.08;;;2.92;100.00
10718;BME280;13513;42.700;23.124;2024-01-27T04:16:18;149648.08;;;2.92;100.00
10718;BME280;13513;42.700;23.124;2024-01-27T04:18:46;149636.48;;;2.87;100.00
10718;BME280;13513;42.700;23.124;2024-01-27T04:21:14;149657.05;;;2.95;100.00
10718;BME280;13513;42.700;23.124;2024-01-27T04:23:41;149633.94;;;2.86;100.00
10718;BME280;13513;42.700;23.124;2024-01-27T04:26:09;149646.77;;;2.91;100.00
10718;BME280;13513;42.700;23.124;2024-01-27T04:28:37;149695.63;;;3.10;100.00
10718;BME280;13513;42.700;23.124;2024-01-27T04:31:04;149695.63;;;3.10;100.00
10718;BME280;13513;42.700;23.124;2024-01-27T04:33:32;149713.63;;;3.17;100.00
10718;BME280;13513;42.700;23.124;2024-01-27T04:35:59;149709.77;;;3.16;100.00
10718;BME280;13513;42.700;23.124;2024-01-27T04:38:27;149732.88;;;3.25;100.00
10718;BME280;13513;42.700;23.124;2024-01-27T04:40:55;149765.03;;;3.37;100.00
10718;BME280;13513;42.700;23.124;2024-01-27T04:43:22;149780.48;;;3.43;100.00
10718;BME280;13513;42.700;23.124;2024-01-27T04:45:49;149783.05;;;3.44;100.00
10718;BME280;13513;42.700;23.124;2024-01-27T04:48:17;149776.63;;;3.42;100.00
10718;BME280;13513;42.700;23.124;2024-01-27T04:50:44;149795.89;;;3.49;100.00
10718;BME280;13513;42.700;23.124;2024-01-27T04:53:13;149824.19;;;3.60;100.00
10718;BME280;13513;42.700;23.124;2024-01-27T04:55:40;149815.20;;;3.57;100.00
10718;BME280;13513;42.700;23.124;2024-01-27T04:58:07;149815.20;;;3.57;100.00
10718;BME280;13513;42.700;23.124;2024-01-27T05:00:35;149829.36;;;3.62;100.00
10718;BME280;13513;42.700;23.124;2024-01-27T05:03:03;149824.19;;;3.60;100.00
10718;BME280;13513;42.700;23.124;2024-01-27T05:05:32;149826.75;;;3.61;100.00
10718;BME280;13513;42.700;23.124;2024-01-27T05:07:59;149831.91;;;3.63;100.00
10718;BME280;13513;42.700;23.124;2024-01-27T05:10:27;149790.78;;;3.47;100.00
10718;BME280;13513;42.700;23.124;2024-01-27T05:12:54;149765.03;;;3.37;100.00
10718;BME280;13513;42.700;23.124;2024-01-27T05:15:22;149772.75;;;3.40;100.00
10718;BME280;13513;42.700;23.124;2024-01-27T05:17:49;149756.06;;;3.34;100.00
10718;BME280;13513;42.700;23.124;2024-01-27T05:20:18;149723.91;;;3.21;100.00
10718;BME280;13513;42.700;23.124;2024-01-27T05:22:45;149726.45;;;3.22;100.00
10718;BME280;13513;42.700;23.124;2024-01-27T05:25:13;149738.05;;;3.27;100.00
10718;BME280;13513;42.700;23.124;2024-01-27T05:27:41;149743.16;;;3.29;100.00
10718;BME280;13513;42.700;23.124;2024-01-27T05:30:09;149703.34;;;3.13;100.00
10718;BME280;13513;42.700;23.124;2024-01-27T05:32:37;149716.19;;;3.18;100.00
10718;BME280;13513;42.700;23.124;2024-01-27T05:35:04;149745.78;;;3.30;100.00
10718;BME280;13513;42.700;23.124;2024-01-27T05:37:32;149745.78;;;3.30;100.00
10718;BME280;13513;42.700;23.124;2024-01-27T05:39:59;149749.59;;;3.31;100.00
10718;BME280;13513;42.700;23.124;2024-01-27T05:42:27;149763.73;;;3.37;100.00
10718;BME280;13513;42.700;23.124;2024-01-27T05:44:54;149768.91;;;3.39;100.00
10718;BME280;13513;42.700;23.124;2024-01-27T05:47:22;149785.59;;;3.45;100.00
10718;BME280;13513;42.700;23.124;2024-01-27T05:49:49;149771.45;;;3.40;100.00
10718;BME280;13513;42.700;23.124;2024-01-27T05:52:17;149738.05;;;3.27;100.00
10718;BME280;13513;42.700;23.124;2024-01-27T05:54:44;149597.94;;;2.72;100.00
10718;BME280;13513;42.700;23.124;2024-01-27T05:57:12;149542.69;;;2.51;100.00
10718;BME280;13513;42.700;23.124;2024-01-27T05:59:39;149542.69;;;2.51;100.00
10718;BME280;13513;42.700;23.124;2024-01-27T06:02:06;149572.27;;;2.62;100.00
10718;BME280;13513;42.700;23.124;2024-01-27T06:04:34;149581.23;;;2.66;100.00
10718;BME280;13513;42.700;23.124;2024-01-27T06:07:01;149541.39;;;2.50;100.00
10718;BME280;13513;42.700;23.124;2024-01-27T06:09:29;149523.44;;;2.43;100.00
10718;BME280;13513;42.700;23.124;2024-01-27T06:11:59;149495.17;;;2.32;100.00
10718;BME280;13513;42.700;23.124;2024-01-27T06:14:28;149448.92;;;2.14;100.00
10718;BME280;13513;42.700;23.124;2024-01-27T06:16:55;149407.84;;;1.98;100.00
10718;BME280;13513;42.700;23.124;2024-01-27T06:19:23;149415.56;;;2.01;100.00
10718;BME280;13513;42.700;23.124;2024-01-27T06:21:50;149487.47;;;2.29;100.00
10718;BME280;13513;42.700;23.124;2024-01-27T06:24:18;149550.41;;;2.54;100.00
10718;BME280;13513;42.700;23.124;2024-01-27T06:26:45;149574.83;;;2.63;100.00
10718;BME280;13513;42.700;23.124;2024-01-27T06:29:13;149600.50;;;2.73;100.00
10718;BME280;13513;42.700;23.124;2024-01-27T06:31:40;149633.94;;;2.86;100.00
10718;BME280;13513;42.700;23.124;2024-01-27T06:34:07;149633.94;;;2.86;100.00
10718;BME280;13513;42.700;23.124;2024-01-27T06:36:35;149597.94;;;2.72;100.00
10718;BME280;13513;42.700;23.124;2024-01-27T06:39:02;149645.47;;;2.91;100.00
10718;BME280;13513;42.700;23.124;2024-01-27T06:41:30;149730.33;;;3.24;100.00
10718;BME280;13513;42.700;23.124;2024-01-27T06:43:57;149753.45;;;3.33;100.00
10718;BME280;13513;42.700;23.124;2024-01-27T06:46:24;149753.45;;;3.33;100.00
10718;BME280;13513;42.700;23.124;2024-01-27T06:48:52;149788.16;;;3.46;100.00
10718;BME280;13513;42.700;23.124;2024-01-27T06:51:19;149801.06;;;3.51;100.00
10718;BME280;13513;42.700;23.124;2024-01-27T06:53:47;149813.91;;;3.56;100.00
10718;BME280;13513;42.700;23.124;2024-01-27T06:56:14;149825.50;;;3.61;100.00
10718;BME280;13513;42.700;23.124;2024-01-27T06:58:42;149808.73;;;3.54;100.00
10718;BME280;13513;42.700;23.124;2024-01-27T07:01:09;149812.59;;;3.56;100.00
10718;BME280;13513;42.700;23.124;2024-01-27T07:03:37;149795.89;;;3.49;100.00
10718;BME280;13513;42.700;23.124;2024-01-27T07:06:06;149808.73;;;3.54;100.00
10718;BME280;13513;42.700;23.124;2024-01-27T07:08:33;149812.59;;;3.56;100.00
10718;BME280;13513;42.700;23.124;2024-01-27T07:11:01;149812.59;;;3.56;100.00
10718;BME280;13513;42.700;23.124;2024-01-27T07:13:28;149770.20;;;3.39;100.00
10718;BME280;13513;42.700;23.124;2024-01-27T07:15:59;149770.20;;;3.39;100.00
10718;BME280;13513;42.700;23.124;2024-01-27T07:18:26;149777.88;;;3.42;100.00
10718;BME280;13513;42.700;23.124;2024-01-27T07:20:55;149794.64;;;3.49;100.00
10718;BME280;13513;42.700;23.124;2024-01-27T07:23:24;149820.31;;;3.59;100.00
10718;BME280;13513;42.700;23.124;2024-01-27T07:25:51;149819.02;;;3.58;100.00
10718;BME280;13513;42.700;23.124;2024-01-27T07:28:19;149766.34;;;3.38;100.00
10718;BME280;13513;42.700;23.124;2024-01-27T07:30:46;149802.31;;;3.52;100.00
10718;BME280;13513;42.700;23.124;2024-01-27T07:33:14;149767.59;;;3.38;100.00
10718;BME280;13513;42.700;23.124;2024-01-27T07:35:41;149795.89;;;3.49;100.00
10718;BME280;13513;42.700;23.124;2024-01-27T07:38:09;149834.47;;;3.64;100.00
10718;BME280;13513;42.700;23.124;2024-01-27T07:40:36;149835.78;;;3.65;100.00
10718;BME280;13513;42.700;23.124;2024-01-27T07:43:04;149835.78;;;3.65;100.00
10718;BME280;13513;42.700;23.124;2024-01-27T07:45:31;149860.22;;;3.74;100.00
10718;BME280;13513;42.700;23.124;2024-01-27T07:47:59;149878.19;;;3.81;100.00
10718;BME280;13513;42.700;23.124;2024-01-27T07:50:26;149878.19;;;3.81;100.00
10718;BME280;13513;42.700;23.124;2024-01-27T07:52:54;149864.08;;;3.76;100.00
10718;BME280;13513;42.700;23.124;2024-01-27T07:55:21;149865.34;;;3.76;100.00
10718;BME280;13513;42.700;23.124;2024-01-27T07:57:49;149898.81;;;3.89;100.00
10718;BME280;13513;42.700;23.124;2024-01-27T08:00:17;149924.50;;;3.99;100.00
10718;BME280;13513;42.700;23.124;2024-01-27T08:02:44;149956.69;;;4.12;100.00
10718;BME280;13513;42.700;23.124;2024-01-27T08:05:12;149955.37;;;4.11;100.00
10718;BME280;13513;42.700;23.124;2024-01-27T08:07:39;149942.53;;;4.06;100.00
10718;BME280;13513;42.700;23.124;2024-01-27T08:10:07;149965.67;;;4.15;100.00
10718;BME280;13513;42.700;23.124;2024-01-27T08:12:36;149977.27;;;4.20;100.00
10718;BME280;13513;42.700;23.124;2024-01-27T08:15:05;149965.67;;;4.15;100.00
10718;BME280;13513;42.700;23.124;2024-01-27T08:17:32;149955.37;;;4.11;100.00
10718;BME280;13513;42.700;23.124;2024-01-27T08:20:00;149963.11;;;4.14;100.00
10718;BME280;13513;42.700;23.124;2024-01-27T08:22:28;149960.56;;;4.13;100.00
10718;BME280;13513;42.700;23.124;2024-01-27T08:24:55;149972.09;;;4.18;100.00
10718;BME280;13513;42.700;23.124;2024-01-27T08:27:22;149969.53;;;4.17;100.00
10718;BME280;13513;42.700;23.124;2024-01-27T08:29:50;149993.98;;;4.26;100.00
10718;BME280;13513;42.700;23.124;2024-01-27T08:32:18;149992.73;;;4.26;100.00
10718;BME280;13513;42.700;23.124;2024-01-27T08:34:45;150000.41;;;4.29;100.00
10718;BME280;13513;42.700;23.124;2024-01-27T08:37:20;150023.61;;;4.38;100.00
10718;BME280;13513;42.700;23.124;2024-01-27T08:39:48;150027.47;;;4.40;100.00
10718;BME280;13513;42.700;23.124;2024-01-27T08:42:17;150044.20;;;4.46;100.00
10718;BME280;13513;42.700;23.124;2024-01-27T08:44:44;150068.66;;;4.56;100.00
10718;BME280;13513;42.700;23.124;2024-01-27T08:47:12;150062.23;;;4.53;100.00
10718;BME280;13513;42.700;23.124;2024-01-27T08:49:39;150062.23;;;4.53;100.00
10718;BME280;13513;42.700;23.124;2024-01-27T08:52:07;150087.94;;;4.63;100.00
10718;BME280;13513;42.700;23.124;2024-01-27T08:54:35;150121.44;;;4.76;100.00
10718;BME280;13513;42.700;23.124;2024-01-27T08:57:02;150077.64;;;4.59;100.00
10718;BME280;13513;42.700;23.124;2024-01-27T08:59:30;150407.41;;;5.87;100.00
10718;BME280;13513;42.700;23.124;2024-01-27T09:01:57;150412.59;;;5.89;97.07
10718;BME280;13513;42.700;23.124;2024-01-27T09:04:25;150306.86;;;5.48;96.78
10718;BME280;13513;42.700;23.124;2024-01-27T09:06:52;150274.64;;;5.36;100.00
10718;BME280;13513;42.700;23.124;2024-01-27T09:09:20;150243.73;;;5.24;100.00
10718;BME280;13513;42.700;23.124;2024-01-27T09:11:47;150232.17;;;5.19;100.00
10718;BME280;13513;42.700;23.124;2024-01-27T09:14:16;150158.77;;;4.91;100.00
10718;BME280;13513;42.700;23.124;2024-01-27T09:16:43;150058.36;;;4.52;100.00
10718;BME280;13513;42.700;23.124;2024-01-27T09:19:12;150057.06;;;4.51;100.00
10718;BME280;13513;42.700;23.124;2024-01-27T09:21:40;150062.23;;;4.53;100.00
10718;BME280;13513;42.700;23.124;2024-01-27T09:24:07;150161.33;;;4.92;100.00
10718;BME280;13513;42.700;23.124;2024-01-27T09:26:35;150183.23;;;5.00;100.00
10718;BME280;13513;42.700;23.124;2024-01-27T09:29:02;150187.09;;;5.02;100.00
10718;BME280;13513;42.700;23.124;2024-01-27T09:31:30;150223.13;;;5.16;100.00
10718;BME280;13513;42.700;23.124;2024-01-27T09:33:57;150133.00;;;4.81;100.00
10718;BME280;13513;42.700;23.124;2024-01-27T09:36:25;150069.91;;;4.56;100.00
10718;BME280;13513;42.700;23.124;2024-01-27T09:38:52;150078.95;;;4.60;100.00
10718;BME280;13513;42.700;23.124;2024-01-27T09:41:21;150075.08;;;4.58;100.00
10718;BME280;13513;42.700;23.124;2024-01-27T09:43:48;150044.20;;;4.46;100.00
10718;BME280;13513;42.700;23.124;2024-01-27T09:46:17;149986.25;;;4.23;100.00
10718;BME280;13513;42.700;23.124;2024-01-27T09:48:45;150041.59;;;4.45;100.00
10718;BME280;13513;42.700;23.124;2024-01-27T09:51:12;150075.08;;;4.58;100.00
10718;BME280;13513;42.700;23.124;2024-01-27T09:53:40;150059.62;;;4.52;100.00
10718;BME280;13513;42.700;23.124;2024-01-27T09:56:07;150066.05;;;4.55;100.00
10718;BME280;13513;42.700;23.124;2024-01-27T09:58:36;150066.05;;;4.55;100.00
10718;BME280;13513;42.700;23.124;2024-01-27T10:01:04;150048.06;;;4.48;100.00
10718;BME280;13513;42.700;23.124;2024-01-27T10:03:35;150042.89;;;4.46;100.00
10718;BME280;13513;42.700;23.124;2024-01-27T10:06:08;150085.37;;;4.62;100.00
10718;BME280;13513;42.700;23.124;2024-01-27T10:08:35;150091.81;;;4.65;100.00
10718;BME280;13513;42.700;23.124;2024-01-27T10:11:10;150069.91;;;4.56;100.00
10718;BME280;13513;42.700;23.124;2024-01-27T10:13:40;150071.22;;;4.57;100.00
10718;BME280;13513;42.700;23.124;2024-01-27T10:16:08;150026.17;;;4.39;100.00
10718;BME280;13513;42.700;23.124;2024-01-27T10:18:38;150041.59;;;4.45;100.00
10718;BME280;13513;42.700;23.124;2024-01-27T10:21:17;150028.73;;;4.40;100.00
10718;BME280;13513;42.700;23.124;2024-01-27T10:23:47;150064.80;;;4.54;100.00
10718;BME280;13513;42.700;23.124;2024-01-27T10:26:14;150055.75;;;4.51;100.00
10718;BME280;13513;42.700;23.124;2024-01-27T10:28:42;150032.59;;;4.42;100.00
10718;BME280;13513;42.700;23.124;2024-01-27T10:31:13;150032.59;;;4.42;100.00
10718;BME280;13513;42.700;23.124;2024-01-27T10:33:51;150027.47;;;4.40;100.00
10718;BME280;13513;42.700;23.124;2024-01-27T10:36:11;149979.83;;;4.21;100.00
10718;BME280;13513;42.700;23.124;2024-01-27T10:38:38;149979.83;;;4.21;100.00
10718;BME280;13513;42.700;23.124;2024-01-27T10:41:09;149996.55;;;4.27;100.00
10718;BME280;13513;42.700;23.124;2024-01-27T10:43:38;150009.45;;;4.33;100.00
10718;BME280;13513;42.700;23.124;2024-01-27T10:46:07;149992.73;;;4.26;100.00
10718;BME280;13513;42.700;23.124;2024-01-27T10:48:36;150045.45;;;4.47;100.00
10718;BME280;13513;42.700;23.124;2024-01-27T10:51:08;150072.53;;;4.57;100.00
10718;BME280;13513;42.700;23.124;2024-01-27T10:53:38;150084.08;;;4.62;100.00
10718;BME280;13513;42.700;23.124;2024-01-27T10:56:07;150105.97;;;4.70;100.00
10718;BME280;13513;42.700;23.124;2024-01-27T10:58:38;150118.83;;;4.75;100.00
10718;BME280;13513;42.700;23.124;2024-01-27T11:01:11;150135.56;;;4.82;99.70
10718;BME280;13513;42.700;23.124;2024-01-27T11:03:39;150154.91;;;4.89;100.00
10718;BME280;13513;42.700;23.124;2024-01-27T11:06:08;150086.69;;;4.63;100.00
10718;BME280;13513;42.700;23.124;2024-01-27T11:08:35;150099.55;;;4.68;100.00
10718;BME280;13513;42.700;23.124;2024-01-27T11:11:03;150118.83;;;4.75;100.00
10718;BME280;13513;42.700;23.124;2024-01-27T11:13:32;150093.12;;;4.65;100.00
10718;BME280;13513;42.700;23.124;2024-01-27T11:16:00;150086.69;;;4.63;100.00
10718;BME280;13513;42.700;23.124;2024-01-27T11:18:28;150122.70;;;4.77;100.00
10718;BME280;13513;42.700;23.124;2024-01-27T11:20:58;150214.13;;;5.12;100.00
10718;BME280;13513;42.700;23.124;2024-01-27T11:23:33;150221.88;;;5.15;100.00
10718;BME280;13513;42.700;23.124;2024-01-27T11:26:08;150223.13;;;5.16;100.00
10718;BME280;13513;42.700;23.124;2024-01-27T11:28:36;150236.05;;;5.21;99.45
10718;BME280;13513;42.700;23.124;2024-01-27T11:31:07;150169.06;;;4.95;100.00
10718;BME280;13513;42.700;23.124;2024-01-27T11:33:42;150229.56;;;5.18;100.00
10718;BME280;13513;42.700;23.124;2024-01-27T11:36:23;150229.56;;;5.18;99.12
10718;BME280;13513;42.700;23.124;2024-01-27T11:38:51;150201.27;;;5.07;99.78
10718;BME280;13513;42.700;23.124;2024-01-27T11:41:26;150187.09;;;5.02;99.10
10718;BME280;13513;42.700;23.124;2024-01-27T11:43:56;150184.50;;;5.01;99.49
10718;BME280;13513;42.700;23.124;2024-01-27T11:46:24;150223.13;;;5.16;98.39
10718;BME280;13513;42.700;23.124;2024-01-27T11:48:52;150248.91;;;5.26;96.57
10718;BME280;13513;42.700;23.124;2024-01-27T11:51:20;150273.39;;;5.35;96.44
10718;BME280;13513;42.700;23.124;2024-01-27T11:53:49;150353.25;;;5.66;96.04
10718;BME280;13513;42.700;23.124;2024-01-27T11:56:16;150278.52;;;5.37;94.86
10718;BME280;13513;42.700;23.124;2024-01-27T11:58:48;150449.94;;;6.04;93.03
10718;BME280;13513;42.700;23.124;2024-01-27T12:01:16;150617.56;;;6.69;84.81
10718;BME280;13513;42.700;23.124;2024-01-27T12:03:44;150719.48;;;7.08;79.82
10718;BME280;13513;42.700;23.124;2024-01-27T12:06:11;150585.31;;;6.56;81.99
10718;BME280;13513;42.700;23.124;2024-01-27T12:08:40;150604.69;;;6.64;80.38
10718;BME280;13513;42.700;23.124;2024-01-27T12:11:09;150379.00;;;5.76;82.66
10718;BME280;13513;42.700;23.124;2024-01-27T12:13:37;150357.12;;;5.68;84.91
10718;BME280;13513;42.700;23.124;2024-01-27T12:16:04;150269.52;;;5.34;85.78
10718;BME280;13513;42.700;23.124;2024-01-27T12:18:32;150215.44;;;5.13;88.29
10718;BME280;13513;42.700;23.124;2024-01-27T12:21:00;150203.83;;;5.08;88.93
10718;BME280;13513;42.700;23.124;2024-01-27T12:23:28;150202.53;;;5.08;88.57
10718;BME280;13513;42.700;23.124;2024-01-27T12:25:55;150184.50;;;5.01;89.16
10718;BME280;13513;42.700;23.124;2024-01-27T12:28:23;150066.05;;;4.55;91.41
10718;BME280;13513;42.700;23.124;2024-01-27T12:30:52;150068.66;;;4.56;91.83
10718;BME280;13513;42.700;23.124;2024-01-27T12:33:20;150060.92;;;4.53;93.32
10718;BME280;13513;42.700;23.124;2024-01-27T12:35:51;150062.23;;;4.53;93.04
10718;BME280;13513;42.700;23.124;2024-01-27T12:38:21;150005.59;;;4.31;93.46
10718;BME280;13513;42.700;23.124;2024-01-27T12:40:49;149996.55;;;4.27;94.20
10718;BME280;13513;42.700;23.124;2024-01-27T12:43:17;150000.41;;;4.29;94.23
10718;BME280;13513;42.700;23.124;2024-01-27T12:45:44;149987.56;;;4.24;95.96